sensor_id;sensor_type;location;lat;lon;timestamp;temperature;humidity
9175;DHT22;54374;50.196;8.050;2022-07-17T00:02:12;10.00;99.90
9175;DHT22;54374;50.196;8.050;2022-07-17T00:04:41;9.90;99.90
9175;DHT22;54374;50.196;8.050;2022-07-17T00:07:08;9.80;99.90
9175;DHT22;54374;50.196;8.050;2022-07-17T00:09:35;9.80;99.90
9175;DHT22;54374;50.196;8.050;2022-07-17T00:12:03;9.80;99.90
9175;DHT22;54374;50.196;8.050;2022-07-17T00:14:30;9.80;99.90
9175;DHT22;54374;50.196;8.050;2022-07-17T00:16:57;9.70;99.90
9175;DHT22;54374;50.196;8.050;2022-07-17T00:19:24;9.70;99.90
9175;DHT22;54374;50.196;8.050;2022-07-17T00:21:53;9.80;99.90
9175;DHT22;54374;50.196;8.050;2022-07-17T00:24:20;9.60;99.90
9175;DHT22;54374;50.196;8.050;2022-07-17T00:26:48;9.50;99.90
9175;DHT22;54374;50.196;8.050;2022-07-17T00:29:15;9.40;99.90
9175;DHT22;54374;50.196;8.050;2022-07-17T00:31:43;9.30;99.90
9175;DHT22;54374;50.196;8.050;2022-07-17T00:34:10;9.30;99.90
9175;DHT22;54374;50.196;8.050;2022-07-17T00:36:38;9.30;99.90
9175;DHT22;54374;50.196;8.050;2022-07-17T00:39:06;9.30;99.90
9175;DHT22;54374;50.196;8.050;2022-07-17T00:41:33;9.30;99.90
9175;DHT22;54374;50.196;8.050;2022-07-17T00:44:05;9.30;99.90
9175;DHT22;54374;50.196;8.050;2022-07-17T00:46:32;9.30;99.90
9175;DHT22;54374;50.196;8.050;2022-07-17T00:48:59;9.20;99.90
9175;DHT22;54374;50.196;8.050;2022-07-17T00:51:27;9.10;99.90
9175;DHT22;54374;50.196;8.050;2022-07-17T00:53:55;9.10;99.90
9175;DHT22;54374;50.196;8.050;2022-07-17T00:56:27;9.10;99.90
9175;DHT22;54374;50.196;8.050;2022-07-17T00:58:55;9.20;99.90
9175;DHT22;54374;50.196;8.050;2022-07-17T01:01:22;9.00;99.90
9175;DHT22;54374;50.196;8.050;2022-07-17T01:03:49;8.90;99.90
9175;DHT22;54374;50.196;8.050;2022-07-17T01:06:16;8.90;99.90
9175;DHT22;54374;50.196;8.050;2022-07-17T01:08:43;8.70;99.90
9175;DHT22;54374;50.196;8.050;2022-07-17T01:11:10;8.70;99.90
9175;DHT22;54374;50.196;8.050;2022-07-17T01:13:39;8.60;99.90
9175;DHT22;54374;50.196;8.050;2022-07-17T01:16:07;8.50;99.90
9175;DHT22;54374;50.196;8.050;2022-07-17T01:18:34;8.60;99.90
9175;DHT22;54374;50.196;8.050;2022-07-17T01:21:05;8.60;99.90
9175;DHT22;54374;50.196;8.050;2022-07-17T01:23:32;8.70;99.90
9175;DHT22;54374;50.196;8.050;2022-07-17T01:25:59;8.70;99.90
9175;DHT22;54374;50.196;8.050;2022-07-17T01:28:27;8.80;99.90
9175;DHT22;54374;50.196;8.050;2022-07-17T01:30:56;8.70;99.90
9175;DHT22;54374;50.196;8.050;2022-07-17T01:33:23;8.70;99.90
9175;DHT22;54374;50.196;8.050;2022-07-17T01:35:50;8.70;99.90
9175;DHT22;54374;50.196;8.050;2022-07-17T01:38:19;8.70;99.90
9175;DHT22;54374;50.196;8.050;2022-07-17T01:40:46;8.50;99.90
9175;DHT22;54374;50.196;8.050;2022-07-17T01:43:13;8.40;99.90
9175;DHT22;54374;50.196;8.050;2022-07-17T01:45:40;8.30;99.90
9175;DHT22;54374;50.196;8.050;2022-07-17T01:48:07;8.20;99.90
9175;DHT22;54374;50.196;8.050;2022-07-17T01:50:35;8.20;99.90
9175;DHT22;54374;50.196;8.050;2022-07-17T01:53:02;8.10;99.90
9175;DHT22;54374;50.196;8.050;2022-07-17T01:55:30;8.10;99.90
9175;DHT22;54374;50.196;8.050;2022-07-17T01:57:57;8.00;99.90
9175;DHT22;54374;50.196;8.050;2022-07-17T02:04:07;8.00;99.90
9175;DHT22;54374;50.196;8.050;2022-07-17T02:06:34;8.00;99.90
9175;DHT22;54374;50.196;8.050;2022-07-17T02:09:02;7.90;99.90
9175;DHT22;54374;50.196;8.050;2022-07-17T02:11:30;8.00;99.90
9175;DHT22;54374;50.196;8.050;2022-07-17T02:13:57;8.00;99.90
9175;DHT22;54374;50.196;8.050;2022-07-17T02:16:24;8.00;99.90
9175;DHT22;54374;50.196;8.050;2022-07-17T02:18:51;7.90;99.90
9175;DHT22;54374;50.196;8.050;2022-07-17T02:21:20;7.90;99.90
9175;DHT22;54374;50.196;8.050;2022-07-17T02:23:47;8.00;99.90
9175;DHT22;54374;50.196;8.050;2022-07-17T02:26:14;7.90;99.90
9175;DHT22;54374;50.196;8.050;2022-07-17T02:28:42;7.90;99.90
9175;DHT22;54374;50.196;8.050;2022-07-17T02:31:10;7.80;99.90
9175;DHT22;54374;50.196;8.050;2022-07-17T02:33:37;7.70;99.90
9175;DHT22;54374;50.196;8.050;2022-07-17T02:36:04;7.80;99.90
9175;DHT22;54374;50.196;8.050;2022-07-17T02:38:32;7.80;99.90
9175;DHT22;54374;50.196;8.050;2022-07-17T02:40:59;7.90;99.90
9175;DHT22;54374;50.196;8.050;2022-07-17T02:43:26;7.90;99.90
9175;DHT22;54374;50.196;8.050;2022-07-17T02:45:55;7.90;99.90
9175;DHT22;54374;50.196;8.050;2022-07-17T02:48:22;7.70;99.90
9175;DHT22;54374;50.196;8.050;2022-07-17T02:50:49;7.80;99.90
9175;DHT22;54374;50.196;8.050;2022-07-17T02:53:16;7.70;99.90
9175;DHT22;54374;50.196;8.050;2022-07-17T02:55:43;7.60;99.90
9175;DHT22;54374;50.196;8.050;2022-07-17T02:58:10;7.70;99.90
9175;DHT22;54374;50.196;8.050;2022-07-17T03:00:38;7.60;99.90
9175;DHT22;54374;50.196;8.050;2022-07-17T03:03:06;7.50;99.90
9175;DHT22;54374;50.196;8.050;2022-07-17T03:05:35;7.50;99.90
9175;DHT22;54374;50.196;8.050;2022-07-17T03:08:03;7.50;99.90
9175;DHT22;54374;50.196;8.050;2022-07-17T03:10:30;7.40;99.90
9175;DHT22;54374;50.196;8.050;2022-07-17T03:12:58;7.30;99.90
9175;DHT22;54374;50.196;8.050;2022-07-17T03:15:25;7.30;99.90
9175;DHT22;54374;50.196;8.050;2022-07-17T03:17:52;7.30;99.90
9175;DHT22;54374;50.196;8.050;2022-07-17T03:20:20;7.20;99.90
9175;DHT22;54374;50.196;8.050;2022-07-17T03:22:47;7.20;99.90
9175;DHT22;54374;50.196;8.050;2022-07-17T03:25:14;7.20;99.90
9175;DHT22;54374;50.196;8.050;2022-07-17T03:27:41;7.20;99.90
9175;DHT22;54374;50.196;8.050;2022-07-17T03:30:09;7.30;99.90
9175;DHT22;54374;50.196;8.050;2022-07-17T03:32:36;7.30;99.90
9175;DHT22;54374;50.196;8.050;2022-07-17T03:35:03;7.40;99.90
9175;DHT22;54374;50.196;8.050;2022-07-17T03:37:32;7.40;99.90
9175;DHT22;54374;50.196;8.050;2022-07-17T03:39:59;7.30;99.90
9175;DHT22;54374;50.196;8.050;2022-07-17T03:42:26;7.30;99.90
9175;DHT22;54374;50.196;8.050;2022-07-17T03:44:53;7.30;99.90
9175;DHT22;54374;50.196;8.050;2022-07-17T03:47:20;7.50;99.90
9175;DHT22;54374;50.196;8.050;2022-07-17T03:49:47;7.50;99.90
9175;DHT22;54374;50.196;8.050;2022-07-17T03:52:14;7.40;99.90
9175;DHT22;54374;50.196;8.050;2022-07-17T03:54:43;7.40;99.90
9175;DHT22;54374;50.196;8.050;2022-07-17T03:57:10;7.40;99.90
9175;DHT22;54374;50.196;8.050;2022-07-17T03:59:37;7.30;99.90
9175;DHT22;54374;50.196;8.050;2022-07-17T04:02:04;7.20;99.90
9175;DHT22;54374;50.196;8.050;2022-07-17T04:04:31;7.20;99.90
9175;DHT22;54374;50.196;8.050;2022-07-17T04:06:58;7.30;99.90
9175;DHT22;54374;50.196;8.050;2022-07-17T04:09:25;7.30;99.90
9175;DHT22;54374;50.196;8.050;2022-07-17T04:11:54;7.40;99.90
9175;DHT22;54374;50.196;8.050;2022-07-17T04:14:21;7.40;99.90
9175;DHT22;54374;50.196;8.050;2022-07-17T04:16:48;7.40;99.90
9175;DHT22;54374;50.196;8.050;2022-07-17T04:19:15;7.40;99.90
9175;DHT22;54374;50.196;8.050;2022-07-17T04:21:42;7.30;99.90
9175;DHT22;54374;50.196;8.050;2022-07-17T04:24:09;7.30;99.90
9175;DHT22;54374;50.196;8.050;2022-07-17T04:26:36;7.30;99.90
9175;DHT22;54374;50.196;8.050;2022-07-17T04:29:04;7.30;99.90
9175;DHT22;54374;50.196;8.050;2022-07-17T04:31:31;7.40;99.90
9175;DHT22;54374;50.196;8.050;2022-07-17T04:33:58;7.40;99.90
9175;DHT22;54374;50.196;8.050;2022-07-17T04:36:27;7.40;99.90
9175;DHT22;54374;50.196;8.050;2022-07-17T04:38:54;7.50;99.90
9175;DHT22;54374;50.196;8.050;2022-07-17T04:41:21;7.70;99.90
9175;DHT22;54374;50.196;8.050;2022-07-17T04:43:48;7.90;99.90
9175;DHT22;54374;50.196;8.050;2022-07-17T04:46:17;8.10;99.90
9175;DHT22;54374;50.196;8.050;2022-07-17T04:48:44;8.30;99.90
9175;DHT22;54374;50.196;8.050;2022-07-17T04:51:11;8.40;99.90
9175;DHT22;54374;50.196;8.050;2022-07-17T04:53:38;8.50;99.90
9175;DHT22;54374;50.196;8.050;2022-07-17T04:56:05;8.70;99.90
9175;DHT22;54374;50.196;8.050;2022-07-17T04:58:32;9.00;99.90
9175;DHT22;54374;50.196;8.050;2022-07-17T05:00:59;9.20;99.90
9175;DHT22;54374;50.196;8.050;2022-07-17T05:03:31;9.50;99.90
9175;DHT22;54374;50.196;8.050;2022-07-17T05:05:58;9.80;99.90
9175;DHT22;54374;50.196;8.050;2022-07-17T05:08:25;9.90;99.90
9175;DHT22;54374;50.196;8.050;2022-07-17T05:10:52;10.00;99.90
9175;DHT22;54374;50.196;8.050;2022-07-17T05:13:19;10.00;99.90
9175;DHT22;54374;50.196;8.050;2022-07-17T05:15:46;10.10;99.90
9175;DHT22;54374;50.196;8.050;2022-07-17T05:18:15;10.10;99.90
9175;DHT22;54374;50.196;8.050;2022-07-17T05:20:43;10.30;99.90
9175;DHT22;54374;50.196;8.050;2022-07-17T05:23:11;10.40;99.90
9175;DHT22;54374;50.196;8.050;2022-07-17T05:25:38;10.50;99.90
9175;DHT22;54374;50.196;8.050;2022-07-17T05:28:05;10.60;99.90
9175;DHT22;54374;50.196;8.050;2022-07-17T05:30:32;10.70;99.90
9175;DHT22;54374;50.196;8.050;2022-07-17T05:32:59;10.70;99.90
9175;DHT22;54374;50.196;8.050;2022-07-17T05:35:26;10.80;99.90
9175;DHT22;54374;50.196;8.050;2022-07-17T05:37:54;11.00;99.90
9175;DHT22;54374;50.196;8.050;2022-07-17T05:40:21;11.10;99.90
9175;DHT22;54374;50.196;8.050;2022-07-17T05:42:48;11.20;99.90
9175;DHT22;54374;50.196;8.050;2022-07-17T05:45:15;11.40;99.90
9175;DHT22;54374;50.196;8.050;2022-07-17T05:47:42;11.50;99.90
9175;DHT22;54374;50.196;8.050;2022-07-17T05:50:09;11.70;99.90
9175;DHT22;54374;50.196;8.050;2022-07-17T05:52:36;11.80;99.90
9175;DHT22;54374;50.196;8.050;2022-07-17T05:55:05;11.90;99.90
9175;DHT22;54374;50.196;8.050;2022-07-17T05:57:33;12.00;99.90
9175;DHT22;54374;50.196;8.050;2022-07-17T06:00:00;12.00;99.90
9175;DHT22;54374;50.196;8.050;2022-07-17T06:02:38;12.00;99.90
9175;DHT22;54374;50.196;8.050;2022-07-17T06:05:06;12.10;99.90
9175;DHT22;54374;50.196;8.050;2022-07-17T06:07:33;12.30;99.90
9175;DHT22;54374;50.196;8.050;2022-07-17T06:10:00;12.50;99.90
9175;DHT22;54374;50.196;8.050;2022-07-17T06:12:28;12.70;99.90
9175;DHT22;54374;50.196;8.050;2022-07-17T06:14:55;13.00;99.90
9175;DHT22;54374;50.196;8.050;2022-07-17T06:17:23;13.10;99.90
9175;DHT22;54374;50.196;8.050;2022-07-17T06:19:50;13.30;99.90
9175;DHT22;54374;50.196;8.050;2022-07-17T06:22:17;13.50;99.90
9175;DHT22;54374;50.196;8.050;2022-07-17T06:24:45;13.70;99.90
9175;DHT22;54374;50.196;8.050;2022-07-17T06:27:12;13.90;99.90
9175;DHT22;54374;50.196;8.050;2022-07-17T06:29:40;14.10;99.90
9175;DHT22;54374;50.196;8.050;2022-07-17T06:32:07;14.20;99.90
9175;DHT22;54374;50.196;8.050;2022-07-17T06:34:35;14.30;99.90
9175;DHT22;54374;50.196;8.050;2022-07-17T06:37:02;14.50;99.90
9175;DHT22;54374;50.196;8.050;2022-07-17T06:39:29;14.70;99.90
9175;DHT22;54374;50.196;8.050;2022-07-17T06:41:59;14.90;99.90
9175;DHT22;54374;50.196;8.050;2022-07-17T06:44:27;15.10;99.90
9175;DHT22;54374;50.196;8.050;2022-07-17T06:46:55;15.30;99.90
9175;DHT22;54374;50.196;8.050;2022-07-17T06:49:22;15.50;99.90
9175;DHT22;54374;50.196;8.050;2022-07-17T06:51:51;15.60;99.90
9175;DHT22;54374;50.196;8.050;2022-07-17T06:54:18;15.70;99.90
9175;DHT22;54374;50.196;8.050;2022-07-17T06:56:49;15.90;99.90
9175;DHT22;54374;50.196;8.050;2022-07-17T06:59:16;16.00;99.90
9175;DHT22;54374;50.196;8.050;2022-07-17T07:01:43;16.20;99.90
9175;DHT22;54374;50.196;8.050;2022-07-17T07:04:11;16.30;99.90
9175;DHT22;54374;50.196;8.050;2022-07-17T07:06:39;16.30;99.90
9175;DHT22;54374;50.196;8.050;2022-07-17T07:09:06;16.30;99.90
9175;DHT22;54374;50.196;8.050;2022-07-17T07:11:33;16.50;99.90
9175;DHT22;54374;50.196;8.050;2022-07-17T07:14:00;16.70;99.90
9175;DHT22;54374;50.196;8.050;2022-07-17T07:16:28;16.90;99.90
9175;DHT22;54374;50.196;8.050;2022-07-17T07:18:55;17.20;99.90
9175;DHT22;54374;50.196;8.050;2022-07-17T07:21:23;17.40;99.90
9175;DHT22;54374;50.196;8.050;2022-07-17T07:23:51;17.60;99.90
9175;DHT22;54374;50.196;8.050;2022-07-17T07:26:19;17.60;99.90
9175;DHT22;54374;50.196;8.050;2022-07-17T07:28:46;17.70;99.90
9175;DHT22;54374;50.196;8.050;2022-07-17T07:31:13;17.80;99.90
9175;DHT22;54374;50.196;8.050;2022-07-17T07:33:42;17.80;99.90
9175;DHT22;54374;50.196;8.050;2022-07-17T07:36:10;17.80;99.90
9175;DHT22;54374;50.196;8.050;2022-07-17T07:38:38;17.90;99.90
9175;DHT22;54374;50.196;8.050;2022-07-17T07:41:05;18.00;99.90
9175;DHT22;54374;50.196;8.050;2022-07-17T07:43:32;18.20;99.90
9175;DHT22;54374;50.196;8.050;2022-07-17T07:45:59;18.20;99.90
9175;DHT22;54374;50.196;8.050;2022-07-17T07:48:28;18.40;99.90
9175;DHT22;54374;50.196;8.050;2022-07-17T07:50:55;18.50;99.90
9175;DHT22;54374;50.196;8.050;2022-07-17T07:53:22;18.50;99.90
9175;DHT22;54374;50.196;8.050;2022-07-17T07:55:50;18.60;99.90
9175;DHT22;54374;50.196;8.050;2022-07-17T07:58:17;18.70;99.90
9175;DHT22;54374;50.196;8.050;2022-07-17T08:00:45;18.70;99.90
9175;DHT22;54374;50.196;8.050;2022-07-17T08:03:12;18.90;99.90
9175;DHT22;54374;50.196;8.050;2022-07-17T08:05:40;19.20;99.90
9175;DHT22;54374;50.196;8.050;2022-07-17T08:08:07;19.50;99.90
9175;DHT22;54374;50.196;8.050;2022-07-17T08:10:34;19.60;99.90
9175;DHT22;54374;50.196;8.050;2022-07-17T08:13:03;19.70;99.90
9175;DHT22;54374;50.196;8.050;2022-07-17T08:15:30;19.70;99.90
9175;DHT22;54374;50.196;8.050;2022-07-17T08:17:58;19.90;99.90
9175;DHT22;54374;50.196;8.050;2022-07-17T08:20:26;20.00;99.90
9175;DHT22;54374;50.196;8.050;2022-07-17T08:22:54;20.30;99.90
9175;DHT22;54374;50.196;8.050;2022-07-17T08:25:21;20.50;99.40
9175;DHT22;54374;50.196;8.050;2022-07-17T08:27:48;20.50;99.20
9175;DHT22;54374;50.196;8.050;2022-07-17T08:30:17;20.70;99.30
9175;DHT22;54374;50.196;8.050;2022-07-17T08:32:44;20.60;97.10
9175;DHT22;54374;50.196;8.050;2022-07-17T08:35:12;20.40;97.70
9175;DHT22;54374;50.196;8.050;2022-07-17T08:37:43;20.50;97.10
9175;DHT22;54374;50.196;8.050;2022-07-17T08:40:23;20.70;96.10
9175;DHT22;54374;50.196;8.050;2022-07-17T08:42:51;21.00;97.40
9175;DHT22;54374;50.196;8.050;2022-07-17T08:45:20;21.10;96.70
9175;DHT22;54374;50.196;8.050;2022-07-17T08:47:52;21.30;96.00
9175;DHT22;54374;50.196;8.050;2022-07-17T08:50:22;21.50;97.10
9175;DHT22;54374;50.196;8.050;2022-07-17T08:52:50;21.60;95.20
9175;DHT22;54374;50.196;8.050;2022-07-17T08:55:17;21.60;96.30
9175;DHT22;54374;50.196;8.050;2022-07-17T08:57:46;21.60;95.70
9175;DHT22;54374;50.196;8.050;2022-07-17T09:00:14;21.50;95.10
9175;DHT22;54374;50.196;8.050;2022-07-17T09:02:57;21.40;95.00
9175;DHT22;54374;50.196;8.050;2022-07-17T09:05:26;21.30;95.00
9175;DHT22;54374;50.196;8.050;2022-07-17T09:07:54;21.30;94.60
9175;DHT22;54374;50.196;8.050;2022-07-17T09:10:33;21.30;95.00
9175;DHT22;54374;50.196;8.050;2022-07-17T09:13:13;21.30;94.20
9175;DHT22;54374;50.196;8.050;2022-07-17T09:15:41;21.30;95.40
9175;DHT22;54374;50.196;8.050;2022-07-17T09:18:09;21.50;95.80
9175;DHT22;54374;50.196;8.050;2022-07-17T09:20:42;21.70;96.70
9175;DHT22;54374;50.196;8.050;2022-07-17T09:23:10;22.00;95.70
9175;DHT22;54374;50.196;8.050;2022-07-17T09:25:39;22.20;94.50
9175;DHT22;54374;50.196;8.050;2022-07-17T09:28:08;22.30;93.90
9175;DHT22;54374;50.196;8.050;2022-07-17T09:30:37;22.10;92.70
9175;DHT22;54374;50.196;8.050;2022-07-17T09:33:07;22.00;93.20
9175;DHT22;54374;50.196;8.050;2022-07-17T09:35:44;22.10;95.60
9175;DHT22;54374;50.196;8.050;2022-07-17T09:38:28;22.20;95.20
9175;DHT22;54374;50.196;8.050;2022-07-17T09:41:08;22.30;94.40
9175;DHT22;54374;50.196;8.050;2022-07-17T09:43:39;22.40;93.40
9175;DHT22;54374;50.196;8.050;2022-07-17T09:46:09;22.40;93.30
9175;DHT22;54374;50.196;8.050;2022-07-17T09:48:40;22.40;93.50
9175;DHT22;54374;50.196;8.050;2022-07-17T09:51:16;22.60;93.90
9175;DHT22;54374;50.196;8.050;2022-07-17T09:53:48;22.70;93.10
9175;DHT22;54374;50.196;8.050;2022-07-17T09:56:17;23.00;92.90
9175;DHT22;54374;50.196;8.050;2022-07-17T09:58:47;23.10;91.00
9175;DHT22;54374;50.196;8.050;2022-07-17T10:01:16;22.80;90.40
9175;DHT22;54374;50.196;8.050;2022-07-17T10:03:43;22.70;89.70
9175;DHT22;54374;50.196;8.050;2022-07-17T10:06:11;22.60;90.30
9175;DHT22;54374;50.196;8.050;2022-07-17T10:08:39;22.70;91.10
9175;DHT22;54374;50.196;8.050;2022-07-17T10:11:07;22.80;92.00
9175;DHT22;54374;50.196;8.050;2022-07-17T10:13:35;22.90;89.30
9175;DHT22;54374;50.196;8.050;2022-07-17T10:16:04;22.90;89.80
9175;DHT22;54374;50.196;8.050;2022-07-17T10:18:39;22.90;86.60
9175;DHT22;54374;50.196;8.050;2022-07-17T10:21:11;23.00;87.60
9175;DHT22;54374;50.196;8.050;2022-07-17T10:23:42;23.20;86.80
9175;DHT22;54374;50.196;8.050;2022-07-17T10:26:09;23.20;86.20
9175;DHT22;54374;50.196;8.050;2022-07-17T10:28:43;23.30;84.00
9175;DHT22;54374;50.196;8.050;2022-07-17T10:31:14;23.30;80.40
9175;DHT22;54374;50.196;8.050;2022-07-17T10:33:55;23.30;83.10
9175;DHT22;54374;50.196;8.050;2022-07-17T10:36:32;23.30;81.20
9175;DHT22;54374;50.196;8.050;2022-07-17T10:39:12;23.20;81.90
9175;DHT22;54374;50.196;8.050;2022-07-17T10:41:39;23.10;82.70
9175;DHT22;54374;50.196;8.050;2022-07-17T10:44:06;23.10;84.40
9175;DHT22;54374;50.196;8.050;2022-07-17T10:46:33;23.30;82.50
9175;DHT22;54374;50.196;8.050;2022-07-17T10:49:02;23.50;80.90
9175;DHT22;54374;50.196;8.050;2022-07-17T10:51:30;23.60;76.70
9175;DHT22;54374;50.196;8.050;2022-07-17T10:54:00;23.60;77.70
9175;DHT22;54374;50.196;8.050;2022-07-17T10:56:30;23.80;77.90
9175;DHT22;54374;50.196;8.050;2022-07-17T10:59:01;23.80;73.30
9175;DHT22;54374;50.196;8.050;2022-07-17T11:01:28;23.80;74.10
9175;DHT22;54374;50.196;8.050;2022-07-17T11:03:57;23.80;70.20
9175;DHT22;54374;50.196;8.050;2022-07-17T11:06:25;23.80;71.10
9175;DHT22;54374;50.196;8.050;2022-07-17T11:08:55;23.70;71.40
9175;DHT22;54374;50.196;8.050;2022-07-17T11:11:34;23.70;71.30
9175;DHT22;54374;50.196;8.050;2022-07-17T11:14:11;23.70;72.50
9175;DHT22;54374;50.196;8.050;2022-07-17T11:16:44;23.70;70.80
9175;DHT22;54374;50.196;8.050;2022-07-17T11:19:19;23.70;69.00
9175;DHT22;54374;50.196;8.050;2022-07-17T11:21:48;23.70;69.00
9175;DHT22;54374;50.196;8.050;2022-07-17T11:24:15;23.80;68.10
9175;DHT22;54374;50.196;8.050;2022-07-17T11:26:42;23.80;67.20
9175;DHT22;54374;50.196;8.050;2022-07-17T11:29:11;23.80;68.90
9175;DHT22;54374;50.196;8.050;2022-07-17T11:31:40;24.00;66.70
9175;DHT22;54374;50.196;8.050;2022-07-17T11:34:09;24.10;67.50
9175;DHT22;54374;50.196;8.050;2022-07-17T11:36:39;24.20;65.40
9175;DHT22;54374;50.196;8.050;2022-07-17T11:39:08;24.20;61.90
9175;DHT22;54374;50.196;8.050;2022-07-17T11:41:37;24.20;63.40
9175;DHT22;54374;50.196;8.050;2022-07-17T11:44:06;24.20;58.10
9175;DHT22;54374;50.196;8.050;2022-07-17T11:46:37;24.10;60.70
9175;DHT22;54374;50.196;8.050;2022-07-17T11:49:04;24.10;61.90
9175;DHT22;54374;50.196;8.050;2022-07-17T11:51:43;24.30;59.90
9175;DHT22;54374;50.196;8.050;2022-07-17T11:54:12;24.30;58.70
9175;DHT22;54374;50.196;8.050;2022-07-17T11:56:41;24.30;58.70
9175;DHT22;54374;50.196;8.050;2022-07-17T11:59:09;24.30;57.40
9175;DHT22;54374;50.196;8.050;2022-07-17T12:01:43;24.40;56.80
9175;DHT22;54374;50.196;8.050;2022-07-17T12:04:15;24.40;58.40
9175;DHT22;54374;50.196;8.050;2022-07-17T12:06:44;24.60;60.80
9175;DHT22;54374;50.196;8.050;2022-07-17T12:09:12;24.60;57.00
9175;DHT22;54374;50.196;8.050;2022-07-17T12:11:48;24.50;54.90
9175;DHT22;54374;50.196;8.050;2022-07-17T12:14:49;24.70;55.40
9175;DHT22;54374;50.196;8.050;2022-07-17T12:17:42;24.80;55.40
9175;DHT22;54374;50.196;8.050;2022-07-17T12:20:11;24.60;54.90
9175;DHT22;54374;50.196;8.050;2022-07-17T12:22:45;24.70;53.00
9175;DHT22;54374;50.196;8.050;2022-07-17T12:25:23;24.70;54.40
9175;DHT22;54374;50.196;8.050;2022-07-17T12:27:51;24.80;51.40
9175;DHT22;54374;50.196;8.050;2022-07-17T12:30:19;24.60;50.30
9175;DHT22;54374;50.196;8.050;2022-07-17T12:32:51;24.70;53.10
9175;DHT22;54374;50.196;8.050;2022-07-17T12:35:18;24.80;54.50
9175;DHT22;54374;50.196;8.050;2022-07-17T12:37:45;24.70;48.90
9175;DHT22;54374;50.196;8.050;2022-07-17T12:40:12;24.60;47.10
9175;DHT22;54374;50.196;8.050;2022-07-17T12:42:44;24.70;47.00
9175;DHT22;54374;50.196;8.050;2022-07-17T12:45:11;24.80;50.30
9175;DHT22;54374;50.196;8.050;2022-07-17T12:47:38;24.80;50.20
9175;DHT22;54374;50.196;8.050;2022-07-17T12:50:08;24.90;49.20
9175;DHT22;54374;50.196;8.050;2022-07-17T12:52:36;24.90;49.20
9175;DHT22;54374;50.196;8.050;2022-07-17T12:55:04;25.00;48.30
9175;DHT22;54374;50.196;8.050;2022-07-17T12:57:35;25.00;47.60
9175;DHT22;54374;50.196;8.050;2022-07-17T13:00:06;25.00;47.70
9175;DHT22;54374;50.196;8.050;2022-07-17T13:02:36;24.90;46.90
9175;DHT22;54374;50.196;8.050;2022-07-17T13:05:03;24.90;47.20
9175;DHT22;54374;50.196;8.050;2022-07-17T13:07:32;25.00;46.50
9175;DHT22;54374;50.196;8.050;2022-07-17T13:09:59;25.10;47.30
9175;DHT22;54374;50.196;8.050;2022-07-17T13:12:27;25.10;44.90
9175;DHT22;54374;50.196;8.050;2022-07-17T13:14:57;25.20;46.90
9175;DHT22;54374;50.196;8.050;2022-07-17T13:17:24;25.00;45.70
9175;DHT22;54374;50.196;8.050;2022-07-17T13:19:54;25.20;46.00
9175;DHT22;54374;50.196;8.050;2022-07-17T13:22:21;25.20;44.10
9175;DHT22;54374;50.196;8.050;2022-07-17T13:24:50;25.30;45.40
9175;DHT22;54374;50.196;8.050;2022-07-17T13:27:17;25.30;44.60
9175;DHT22;54374;50.196;8.050;2022-07-17T13:29:44;25.30;46.30
9175;DHT22;54374;50.196;8.050;2022-07-17T13:32:12;25.40;45.20
9175;DHT22;54374;50.196;8.050;2022-07-17T13:34:39;25.40;48.90
9175;DHT22;54374;50.196;8.050;2022-07-17T13:37:06;25.40;44.50
9175;DHT22;54374;50.196;8.050;2022-07-17T13:39:34;25.60;48.20
9175;DHT22;54374;50.196;8.050;2022-07-17T13:42:03;25.70;49.80
9175;DHT22;54374;50.196;8.050;2022-07-17T13:44:31;25.90;47.60
9175;DHT22;54374;50.196;8.050;2022-07-17T13:46:58;26.00;44.00
9175;DHT22;54374;50.196;8.050;2022-07-17T13:49:25;26.20;41.50
9175;DHT22;54374;50.196;8.050;2022-07-17T13:51:53;26.20;39.70
9175;DHT22;54374;50.196;8.050;2022-07-17T13:54:20;26.30;42.00
9175;DHT22;54374;50.196;8.050;2022-07-17T13:56:47;26.20;44.50
9175;DHT22;54374;50.196;8.050;2022-07-17T13:59:16;26.20;46.10
9175;DHT22;54374;50.196;8.050;2022-07-17T14:01:43;26.20;40.90
9175;DHT22;54374;50.196;8.050;2022-07-17T14:04:10;26.20;39.70
9175;DHT22;54374;50.196;8.050;2022-07-17T14:06:37;26.20;41.10
9175;DHT22;54374;50.196;8.050;2022-07-17T14:09:04;26.20;41.50
9175;DHT22;54374;50.196;8.050;2022-07-17T14:11:31;26.10;40.70
9175;DHT22;54374;50.196;8.050;2022-07-17T14:13:58;26.20;42.90
9175;DHT22;54374;50.196;8.050;2022-07-17T14:16:27;26.10;40.90
9175;DHT22;54374;50.196;8.050;2022-07-17T14:18:54;25.90;42.10
9175;DHT22;54374;50.196;8.050;2022-07-17T14:21:28;25.80;42.30
9175;DHT22;54374;50.196;8.050;2022-07-17T14:23:56;25.80;41.20
9175;DHT22;54374;50.196;8.050;2022-07-17T14:26:23;25.70;42.80
9175;DHT22;54374;50.196;8.050;2022-07-17T14:28:50;25.70;44.50
9175;DHT22;54374;50.196;8.050;2022-07-17T14:31:17;25.70;43.80
9175;DHT22;54374;50.196;8.050;2022-07-17T14:33:46;25.60;46.40
9175;DHT22;54374;50.196;8.050;2022-07-17T14:36:13;25.70;46.70
9175;DHT22;54374;50.196;8.050;2022-07-17T14:38:41;25.80;48.00
9175;DHT22;54374;50.196;8.050;2022-07-17T14:41:08;25.80;49.60
9175;DHT22;54374;50.196;8.050;2022-07-17T14:43:35;25.80;45.30
9175;DHT22;54374;50.196;8.050;2022-07-17T14:46:02;25.70;48.80
9175;DHT22;54374;50.196;8.050;2022-07-17T14:48:29;25.80;49.00
9175;DHT22;54374;50.196;8.050;2022-07-17T14:50:58;25.90;49.20
9175;DHT22;54374;50.196;8.050;2022-07-17T14:53:25;26.00;50.40
9175;DHT22;54374;50.196;8.050;2022-07-17T14:55:52;26.00;49.60
9175;DHT22;54374;50.196;8.050;2022-07-17T14:58:20;25.90;50.10
9175;DHT22;54374;50.196;8.050;2022-07-17T15:00:47;25.90;51.90
9175;DHT22;54374;50.196;8.050;2022-07-17T15:03:15;25.90;49.90
9175;DHT22;54374;50.196;8.050;2022-07-17T15:05:42;25.90;49.50
9175;DHT22;54374;50.196;8.050;2022-07-17T15:08:10;25.90;52.70
9175;DHT22;54374;50.196;8.050;2022-07-17T15:10:37;26.00;48.80
9175;DHT22;54374;50.196;8.050;2022-07-17T15:13:04;26.00;47.80
9175;DHT22;54374;50.196;8.050;2022-07-17T15:15:32;26.00;50.90
9175;DHT22;54374;50.196;8.050;2022-07-17T15:18:02;26.00;50.00
9175;DHT22;54374;50.196;8.050;2022-07-17T15:20:29;26.00;51.90
9175;DHT22;54374;50.196;8.050;2022-07-17T15:22:56;26.10;51.20
9175;DHT22;54374;50.196;8.050;2022-07-17T15:25:25;26.10;51.00
9175;DHT22;54374;50.196;8.050;2022-07-17T15:27:52;26.20;53.70
9175;DHT22;54374;50.196;8.050;2022-07-17T15:30:19;26.20;54.40
9175;DHT22;54374;50.196;8.050;2022-07-17T15:32:47;26.20;54.50
9175;DHT22;54374;50.196;8.050;2022-07-17T15:35:14;26.20;54.30
9175;DHT22;54374;50.196;8.050;2022-07-17T15:37:41;26.10;55.10
9175;DHT22;54374;50.196;8.050;2022-07-17T15:40:09;26.10;54.50
9175;DHT22;54374;50.196;8.050;2022-07-17T15:42:37;26.10;54.90
9175;DHT22;54374;50.196;8.050;2022-07-17T15:45:05;26.10;54.20
9175;DHT22;54374;50.196;8.050;2022-07-17T15:47:32;26.20;55.10
9175;DHT22;54374;50.196;8.050;2022-07-17T15:49:59;26.20;55.70
9175;DHT22;54374;50.196;8.050;2022-07-17T15:52:28;26.30;54.50
9175;DHT22;54374;50.196;8.050;2022-07-17T15:54:55;26.30;54.70
9175;DHT22;54374;50.196;8.050;2022-07-17T15:57:22;26.40;59.00
9175;DHT22;54374;50.196;8.050;2022-07-17T15:59:50;26.50;59.70
9175;DHT22;54374;50.196;8.050;2022-07-17T16:02:17;26.80;56.30